createdAt,value
2023-05-08T00:04:47.172Z,10.1
2023-05-08T00:09:48.060Z,10.1
2023-05-08T00:19:48.225Z,10.1
2023-05-08T00:24:47.187Z,10.1
2023-05-08T00:29:47.943Z,10.1
2023-05-08T00:34:47.144Z,10.1
2023-05-08T00:39:48.006Z,10.1
2023-05-08T00:44:47.924Z,10.1
2023-05-08T00:49:47.855Z,10.1
2023-05-08T00:54:47.142Z,10.1
2023-05-08T00:59:48.055Z,10
2023-05-08T01:04:47.162Z,10
2023-05-08T01:09:47.786Z,10.1
2023-05-08T01:14:47.813Z,10.1
2023-05-08T01:19:48.032Z,10
2023-05-08T01:24:47.190Z,10
2023-05-08T01:29:47.908Z,10
2023-05-08T01:34:47.026Z,9.9
2023-05-08T01:39:47.791Z,10
2023-05-08T01:44:47.840Z,10
2023-05-08T01:49:47.900Z,10.1
2023-05-08T01:54:47.077Z,10
2023-05-08T01:59:48.127Z,10
2023-05-08T02:04:47.109Z,10
2023-05-08T02:09:47.830Z,10
2023-05-08T02:14:47.752Z,10
2023-05-08T02:19:47.809Z,10
2023-05-08T02:24:46.940Z,10
2023-05-08T02:29:47.709Z,10
2023-05-08T02:34:55.156Z,10
2023-05-08T02:39:47.980Z,10
2023-05-08T02:44:47.868Z,10
2023-05-08T02:49:47.636Z,10
2023-05-08T02:54:46.995Z,10
2023-05-08T02:59:47.898Z,10
2023-05-08T03:04:47.134Z,10
2023-05-08T03:09:47.741Z,10
2023-05-08T03:14:47.683Z,10
2023-05-08T03:19:47.846Z,10
2023-05-08T03:24:47.007Z,10
2023-05-08T03:29:47.679Z,10
2023-05-08T03:34:46.991Z,10
2023-05-08T03:39:47.665Z,10
2023-05-08T03:44:47.898Z,10
2023-05-08T03:49:47.744Z,10
2023-05-08T03:54:47.047Z,10
2023-05-08T03:59:47.978Z,9.9
2023-05-08T04:04:47.029Z,9.9
2023-05-08T04:09:47.587Z,9.9
2023-05-08T04:14:47.814Z,9.9
2023-05-08T04:19:47.567Z,9.9
2023-05-08T04:24:47.044Z,9.8
2023-05-08T04:29:47.694Z,9.9
2023-05-08T04:34:46.859Z,9.9
2023-05-08T04:39:47.578Z,9.9
2023-05-08T04:44:47.876Z,9.9
2023-05-08T04:49:47.838Z,9.9
2023-05-08T04:54:46.977Z,9.9
2023-05-08T04:59:47.595Z,9.9
2023-05-08T05:04:46.943Z,9.9
2023-05-08T05:09:47.627Z,10
2023-05-08T05:14:47.721Z,10
2023-05-08T05:19:47.693Z,10
2023-05-08T05:24:46.911Z,10
2023-05-08T05:29:47.759Z,10
2023-05-08T05:34:46.918Z,10
2023-05-08T05:39:47.816Z,10
2023-05-08T05:44:47.595Z,9.9
2023-05-08T05:49:47.473Z,10
2023-05-08T05:54:46.878Z,10
2023-05-08T05:59:47.572Z,10
2023-05-08T06:04:46.943Z,10.1
2023-05-08T06:09:47.516Z,10.1
2023-05-08T06:14:47.776Z,10.1
2023-05-08T06:19:47.463Z,10.1
2023-05-08T06:24:46.871Z,10.2
2023-05-08T06:29:47.746Z,10.2
2023-05-08T06:34:46.903Z,10.1
2023-05-08T06:56:08.953Z,10.3
2023-05-08T07:14:16.798Z,10.3
2023-05-08T07:14:17.234Z,10.3
2023-05-08T07:15:05.676Z,10.3
2023-05-08T07:20:01.293Z,10.3
2023-05-08T07:25:01.101Z,10.3
2023-05-08T07:30:01.010Z,10.3
2023-05-08T07:35:01.342Z,10.3
2023-05-08T07:40:01.143Z,10.3
2023-05-08T07:45:01.120Z,10.3
2023-05-08T07:50:01.085Z,10.3
2023-05-08T07:55:01.059Z,10.3
2023-05-08T08:00:01.050Z,10.3
2023-05-08T08:05:01.062Z,10.3
2023-05-08T08:10:01.004Z,10.3
2023-05-08T08:15:01.426Z,10.3
2023-05-08T08:20:01.037Z,10.3
2023-05-08T08:25:01.009Z,10.3
2023-05-08T08:30:15.503Z,10.3
2023-05-08T08:35:03.051Z,10.3
2023-05-08T08:40:02.645Z,10.3
2023-05-08T08:45:04.701Z,10.3
2023-05-08T16:50:08.969Z,11.3
2023-05-08T16:55:01.332Z,11.3
2023-05-08T17:00:02.136Z,11.3
2023-05-08T17:05:01.235Z,11.3
2023-05-08T17:10:02.359Z,11.3
2023-05-08T17:15:02.162Z,11.3
2023-05-08T17:20:02.207Z,11.4
2023-05-08T17:25:01.216Z,11.3
2023-05-08T17:30:01.997Z,11.4
2023-05-08T17:35:01.167Z,11.4
2023-05-08T17:40:01.933Z,11.4
2023-05-08T17:45:02.175Z,11.4
2023-05-08T17:55:00.692Z,11.2
2023-05-08T18:00:00.320Z,11.4
2023-05-08T18:05:00.303Z,11.3
2023-05-08T18:10:00.764Z,11.3
2023-05-08T18:15:00.379Z,11.3
2023-05-08T18:20:00.307Z,11.2
2023-05-08T18:25:00.564Z,11.1
2023-05-08T18:30:00.336Z,11
2023-05-08T18:35:00.240Z,11
2023-05-08T18:40:00.727Z,11
2023-05-08T18:45:00.715Z,10.9
2023-05-08T18:50:00.672Z,10.8
2023-05-08T18:55:00.685Z,10.9
2023-05-08T19:00:00.662Z,10.8
2023-05-08T19:05:00.633Z,10.8
2023-05-08T19:10:00.674Z,10.7
2023-05-08T19:15:00.683Z,10.7
2023-05-08T19:20:00.694Z,10.7
2023-05-08T19:25:00.643Z,10.7
2023-05-08T19:30:00.739Z,10.8
2023-05-08T19:35:00.618Z,10.8
2023-05-08T19:40:01.010Z,10.8
2023-05-08T19:45:00.640Z,10.8
2023-05-08T19:50:00.654Z,10.8
2023-05-08T19:55:00.586Z,10.8
2023-05-08T20:00:00.709Z,10.8
2023-05-08T20:10:00.816Z,10.7
2023-05-08T20:15:00.654Z,10.7
2023-05-08T20:20:00.734Z,10.6
2023-05-08T20:25:02.839Z,10.6
2023-05-08T20:30:00.741Z,10.7
2023-05-08T20:40:00.588Z,10.7
2023-05-08T20:45:00.886Z,10.7
2023-05-08T20:50:00.704Z,10.6
2023-05-08T20:55:00.592Z,10.6
2023-05-08T21:00:00.639Z,10.5
2023-05-08T21:05:00.803Z,10.5
2023-05-08T21:10:00.736Z,10.4
2023-05-08T21:15:00.531Z,10.4
2023-05-08T21:20:00.573Z,10.4
2023-05-08T21:25:00.613Z,10.3
2023-05-08T21:30:00.632Z,10.3
2023-05-08T21:35:00.594Z,10.3
2023-05-08T21:45:00.808Z,10.3
2023-05-08T21:50:00.621Z,10.4
2023-05-08T21:55:00.622Z,10.4
2023-05-08T22:00:00.860Z,10.4
2023-05-08T22:05:00.714Z,10.4
2023-05-08T22:10:00.651Z,10.4
2023-05-08T22:15:00.579Z,10.4
2023-05-08T22:20:00.557Z,10.4
2023-05-08T22:25:00.768Z,10.4
2023-05-08T22:30:00.645Z,10.4
2023-05-08T22:35:00.533Z,10.5
2023-05-08T22:40:00.579Z,10.4
2023-05-08T22:45:00.547Z,10.6
2023-05-08T22:50:00.633Z,10.5
2023-05-08T22:55:00.605Z,10.5
2023-05-08T23:00:00.535Z,10.5
2023-05-08T23:05:00.643Z,10.5
2023-05-08T23:10:00.684Z,10.5
2023-05-08T23:15:00.662Z,10.4
2023-05-08T23:20:00.642Z,10.3
2023-05-08T23:25:00.534Z,10.3
2023-05-08T23:30:00.614Z,10.2
2023-05-08T23:35:00.553Z,10.1
2023-05-08T23:45:00.565Z,10
2023-05-08T23:50:00.662Z,10
2023-05-08T23:55:00.599Z,9.9
